首页
METAR-TAF:

METAR-TAF

机场 :

吕贝克机场

吕贝克, 德国

纬度: 53-49N, 经度: 010-42E, 海拔: 14米

当前天气观测

该预报发布于41分钟前的06:50 UTC
风速11节,风向南转西南
温度 3°C
湿度 81%
气压 1020 hPa
能见度10公里或以上
散云层高于1200英尺
多云层高于2500英尺
小雨

METAR: EDHL 010650Z 20011KT 9999 -RA SCT012 BKN025 03/00 Q1020

时间: 09:31 (07:31 UTC)

预报

该预报发布于2小时和31分钟前的05:00 UTC
预报有效从01日的 06点(UTC)到 01日的 15点(UTC)
风速6节,风向西南
能见度10公里或以上
多云层高于2500英尺
短暂存在
从 01日的 06点(UTC)到 01日的 09点(UTC)
多云层高于1300英尺
成为
从 01日的 06点(UTC)到 01日的 08点(UTC)
风速11节,风向西转西南

TAF: EDHL 010500Z 0106/0115 22006KT 9999 BKN025 TEMPO 0106/0109 BKN013 BECMG 0106/0108 24011KT

超过4000个机场的气象观测和天气预报(METAR&TAF报告)。

可查询的气象台以黄色和红色小点在地图上表示。

将鼠标移到小点上方,可查看气象台名称。

然后点击查看天气观测和预报。

如需切换地图:点击带黑十字的绿色按钮放大地图;点击带横线的绿色按钮缩小地图;或者点击绿色箭头查看邻近地区的地图。


METAR-TAF: